Time;durP1;ratioP1;P1;durP2;ratioP2;P2;SDS_P1;SDS_P2;PMS_P1;PMS_P2;Temp;Humidity;BMP_temperature;BMP_pressure;BME280_temperature;BME280_humidity;BME280_pressure;Samples;Min_cycle;Max_cycle;Signal;HPM_P1;HPM_P2
2022/09/09 00:01:53;;;;;;;;;;;;;;;20.04;64.75;100043.13;5118224;28;19911;-72
2022/09/09 00:04:29;;;;;;;;;;;;;;;20.08;64.80;100044.34;5117322;28;19924;-72
2022/09/09 00:07:02;;;;;;;;;;;;;;;20.07;64.71;100042.72;5119193;28;19975;-72
2022/09/09 00:09:29;;;;;;;;;;;;;;;20.08;64.94;100052.41;5118010;28;20374;-73
2022/09/09 00:12:03;;;;;;;;;;;;;;;19.99;65.46;100054.53;5118320;28;20121;-72
2022/09/09 00:14:47;;;;;;;;;;;;;;;20.10;64.84;100055.72;5116264;28;20138;-72
2022/09/09 00:17:19;;;;;;;;;;;;;;;20.30;64.09;100055.59;5115703;28;20062;-72
2022/09/09 00:19:50;;;;;;;;;;;;;;;20.42;62.32;100053.03;5119510;28;19939;-72
2022/09/09 00:22:17;;;;;;;;;;;;;;;20.42;62.60;100056.56;5118814;28;19920;-73
2022/09/09 00:24:44;;;;;;;;;;;;;;;20.47;63.11;100043.28;5118198;28;19962;-72
2022/09/09 00:27:29;;;;;;;;;;;;;;;20.35;63.21;100040.44;5119269;28;20231;-72
2022/09/09 00:30:00;;;;;;;;;;;;;;;20.17;63.91;100042.22;5118455;28;19922;-72
2022/09/09 00:32:27;;;;;;;;;;;;;;;20.16;64.04;100044.09;5118703;28;19912;-72
2022/09/09 00:34:59;;;;;;;;;;;;;;;20.12;64.03;100042.88;5118300;28;19916;-72
2022/09/09 00:37:25;;;;;;;;;;;;;;;20.06;63.93;100049.94;5091639;28;19919;-72
2022/09/09 00:39:54;;;;;;;;;;;;;;;20.03;64.16;100055.75;5118542;28;19953;-72
2022/09/09 00:42:38;;;;;;;;;;;;;;;20.02;63.80;100059.47;5100122;28;20101;-72
2022/09/09 00:45:23;;;;;;;;;;;;;;;20.09;63.15;100060.25;5106210;28;20247;-72
2022/09/09 00:47:53;;;;;;;;;;;;;;;20.14;62.64;100064.16;5116211;28;19934;-72
2022/09/09 00:50:37;;;;;;;;;;;;;;;20.28;61.91;100054.97;5119579;28;19951;-72
2022/09/09 00:53:21;;;;;;;;;;;;;;;20.32;61.92;100062.38;5118915;28;19923;-72
2022/09/09 00:56:01;;;;;;;;;;;;;;;20.43;61.56;100054.69;5101620;28;20106;-72
2022/09/09 00:58:27;;;;;;;;;;;;;;;20.39;61.71;100052.44;5119101;28;19941;-72
2022/09/09 01:00:59;;;;;;;;;;;;;;;20.22;62.10;100053.97;5118015;28;19931;-72
2022/09/09 01:03:36;;;;;;;;;;;;;;;20.13;62.07;100051.78;5117035;28;19912;-72
2022/09/09 01:06:05;;;;;;;;;;;;;;;20.06;62.46;100060.69;5119132;28;19916;-72
2022/09/09 01:08:54;;;;;;;;;;;;;;;20.04;62.70;100059.25;5118425;28;20177;-72
2022/09/09 01:11:25;;;;;;;;;;;;;;;19.96;62.91;100064.91;5119246;28;20225;-72
2022/09/09 01:14:00;;;;;;;;;;;;;;;19.95;62.94;100061.38;5122074;28;19926;-72
2022/09/09 01:16:27;;;;;;;;;;;;;;;19.96;62.91;100059.53;5122962;28;19922;-72
2022/09/09 01:18:54;;;;;;;;;;;;;;;20.01;62.69;100059.69;5123229;28;19977;-72
2022/09/09 01:21:46;;;;;;;;;;;;;;;19.84;63.28;100051.31;5121629;28;19969;-72
2022/09/09 01:24:14;;;;;;;;;;;;;;;19.77;63.79;100058.59;5090566;28;19942;-72
2022/09/09 01:26:41;;;;;;;;;;;;;;;19.77;63.71;100055.91;5121691;28;20130;-72
2022/09/09 01:29:12;;;;;;;;;;;;;;;19.83;63.79;100056.91;5124715;28;19912;-72
2022/09/09 01:31:40;;;;;;;;;;;;;;;19.95;63.32;100060.56;5124591;28;19916;-72
2022/09/09 01:34:13;;;;;;;;;;;;;;;20.00;63.18;100063.44;5124085;28;19920;-72
2022/09/09 01:36:42;;;;;;;;;;;;;;;20.01;62.40;100062.38;5126093;27;19927;-72
2022/09/09 01:39:07;;;;;;;;;;;;;;;20.05;61.54;100059.06;5122521;28;19922;-72
2022/09/09 01:41:33;;;;;;;;;;;;;;;19.99;61.92;100065.28;5119979;28;19919;-72
2022/09/09 01:43:58;;;;;;;;;;;;;;;19.95;62.45;100056.00;5121349;28;21165;-72
2022/09/09 01:46:24;;;;;;;;;;;;;;;19.96;62.58;100049.59;5121857;28;19915;-72
2022/09/09 01:48:53;;;;;;;;;;;;;;;19.82;63.22;100048.03;5122385;28;19931;-72
2022/09/09 01:51:18;;;;;;;;;;;;;;;19.86;63.41;100043.03;5121443;28;19915;-72
2022/09/09 01:53:45;;;;;;;;;;;;;;;19.72;63.15;100045.75;5121237;28;19912;-72
2022/09/09 01:56:33;;;;;;;;;;;;;;;19.61;63.02;100041.06;5121993;28;19919;-72
2022/09/09 01:59:17;;;;;;;;;;;;;;;19.43;63.56;100047.09;5101733;27;19912;-72
2022/09/09 02:01:45;;;;;;;;;;;;;;;19.42;63.82;100045.44;5118312;28;19916;-72
2022/09/09 02:04:33;;;;;;;;;;;;;;;19.47;63.24;100047.50;5122203;28;20028;-72
2022/09/09 02:07:00;;;;;;;;;;;;;;;19.45;63.37;100055.75;5101691;28;19919;-72
2022/09/09 02:09:26;;;;;;;;;;;;;;;19.50;63.10;100049.75;5120513;28;20129;-72
2022/09/09 02:12:04;;;;;;;;;;;;;;;19.62;63.04;100047.25;5120481;28;20027;-72
2022/09/09 02:14:36;;;;;;;;;;;;;;;19.73;62.01;100046.59;5118714;28;19923;-72
2022/09/09 02:17:09;;;;;;;;;;;;;;;19.56;63.18;100045.44;5102338;28;19915;-72
2022/09/09 02:19:37;;;;;;;;;;;;;;;19.60;62.36;100042.09;5133486;27;20109;-72
2022/09/09 02:22:03;;;;;;;;;;;;;;;19.55;62.78;100046.47;5121165;28;19967;-72
2022/09/09 02:24:29;;;;;;;;;;;;;;;19.58;62.83;100048.72;5136335;27;19946;-72
2022/09/09 02:26:57;;;;;;;;;;;;;;;19.70;62.22;100047.00;5121565;28;19911;-72
2022/09/09 02:29:25;;;;;;;;;;;;;;;19.65;62.60;100052.22;5121203;28;19924;-72
2022/09/09 02:31:51;;;;;;;;;;;;;;;19.73;63.29;100049.28;5102090;28;19912;-72
2022/09/09 02:34:18;;;;;;;;;;;;;;;19.78;63.27;100057.56;5121074;28;19923;-72
2022/09/09 02:36:45;;;;;;;;;;;;;;;19.70;62.87;100057.75;5120042;28;19978;-72
2022/09/09 02:39:11;;;;;;;;;;;;;;;19.66;62.90;100053.84;5119985;28;19919;-72
2022/09/09 02:41:38;;;;;;;;;;;;;;;19.60;62.30;100050.16;5120352;28;19919;-72
2022/09/09 02:44:30;;;;;;;;;;;;;;;19.65;61.51;100054.91;5119711;28;19918;-72
2022/09/09 02:47:13;;;;;;;;;;;;;;;19.53;62.45;100054.72;5117610;28;19982;-72
2022/09/09 02:49:45;;;;;;;;;;;;;;;19.48;63.66;100053.69;5120779;28;19915;-72
2022/09/09 02:52:22;;;;;;;;;;;;;;;19.42;63.66;100039.25;5120002;28;19920;-73
2022/09/09 02:54:51;;;;;;;;;;;;;;;19.38;64.46;100040.72;5120037;28;19947;-72
2022/09/09 02:57:19;;;;;;;;;;;;;;;19.36;64.58;100042.78;5117443;28;19919;-72
2022/09/09 02:59:44;;;;;;;;;;;;;;;19.33;64.63;100044.03;5120231;28;20240;-72
2022/09/09 03:02:11;;;;;;;;;;;;;;;19.39;64.58;100056.63;5119617;28;19943;-72
2022/09/09 03:04:37;;;;;;;;;;;;;;;19.39;64.62;100061.16;5120443;28;19924;-72
2022/09/09 03:07:03;;;;;;;;;;;;;;;19.21;65.37;100066.38;5119681;28;20217;-72
2022/09/09 03:09:29;;;;;;;;;;;;;;;19.24;65.47;100053.34;5119485;28;19916;-72
2022/09/09 03:11:55;;;;;;;;;;;;;;;19.15;65.98;100057.31;5120324;28;19956;-72
2022/09/09 03:14:24;;;;;;;;;;;;;;;19.01;66.51;100055.69;5119341;28;19922;-72
2022/09/09 03:16:49;;;;;;;;;;;;;;;19.07;66.20;100061.03;5101115;28;19980;-72
2022/09/09 03:19:15;;;;;;;;;;;;;;;19.05;66.49;100056.91;5120528;28;20261;-72
2022/09/09 03:21:40;;;;;;;;;;;;;;;19.17;65.96;100059.78;5119378;28;19919;-72
2022/09/09 03:24:06;;;;;;;;;;;;;;;19.15;65.84;100065.34;5119377;28;19918;-72
2022/09/09 03:26:31;;;;;;;;;;;;;;;19.10;66.12;100065.97;5120368;28;20217;-71
2022/09/09 03:28:57;;;;;;;;;;;;;;;19.20;65.78;100068.22;5119713;28;19918;-72
2022/09/09 03:31:22;;;;;;;;;;;;;;;19.32;65.24;100071.91;5120322;28;19939;-72
2022/09/09 03:33:48;;;;;;;;;;;;;;;19.22;65.03;100070.72;5119409;28;19987;-72
2022/09/09 03:36:13;;;;;;;;;;;;;;;19.08;65.08;100075.28;5100976;28;20205;-72
2022/09/09 03:39:11;;;;;;;;;;;;;;;19.12;65.33;100081.88;5302780;22;20053;-67
2022/09/09 03:41:37;;;;;;;;;;;;;;;19.22;65.14;100084.97;5054210;28;19930;-67
2022/09/09 03:44:02;;;;;;;;;;;;;;;19.20;65.02;100081.66;5062171;28;19948;-67
2022/09/09 03:46:27;;;;;;;;;;;;;;;19.11;65.01;100088.28;5059382;28;20126;-67
2022/09/09 03:48:53;;;;;;;;;;;;;;;18.97;65.47;100083.97;5074185;28;19927;-67
2022/09/09 03:51:18;;;;;;;;;;;;;;;18.88;65.58;100083.34;5058555;28;19923;-67
2022/09/09 03:53:44;;;;;;;;;;;;;;;18.76;66.29;100085.84;5061538;28;19958;-67
2022/09/09 03:56:09;;;;;;;;;;;;;;;18.84;66.08;100082.13;5060222;28;19951;-67
2022/09/09 03:58:35;;;;;;;;;;;;;;;18.98;65.48;100080.25;5057868;28;20181;-67
2022/09/09 04:01:13;;;;;;;;;;;;;;;18.96;65.44;100080.47;5059236;28;19916;-67
2022/09/09 04:03:38;;;;;;;;;;;;;;;19.07;65.18;100079.00;5059054;28;19955;-67
2022/09/09 04:06:04;;;;;;;;;;;;;;;19.07;65.15;100082.50;5058216;28;20199;-67
2022/09/09 04:08:33;;;;;;;;;;;;;;;19.07;65.04;100076.31;5056736;28;19908;-67
2022/09/09 04:11:01;;;;;;;;;;;;;;;19.21;64.31;100077.94;5058942;28;19925;-67
2022/09/09 04:13:26;;;;;;;;;;;;;;;19.18;64.27;100082.91;5057472;28;20380;-66
2022/09/09 04:15:52;;;;;;;;;;;;;;;19.10;64.38;100076.72;5058144;28;20030;-67
2022/09/09 04:18:19;;;;;;;;;;;;;;;19.01;64.88;100080.66;5058545;28;19913;-67
2022/09/09 04:20:45;;;;;;;;;;;;;;;19.03;64.96;100077.75;5058039;28;20003;-67
2022/09/09 04:23:11;;;;;;;;;;;;;;;19.19;64.49;100080.00;5055044;28;19982;-66
2022/09/09 04:25:37;;;;;;;;;;;;;;;19.21;64.29;100074.44;5058842;28;20206;-67
2022/09/09 04:28:03;;;;;;;;;;;;;;;19.32;64.35;100076.47;5057753;28;19929;-67
2022/09/09 04:30:28;;;;;;;;;;;;;;;19.36;63.82;100075.84;5058556;28;20169;-67
2022/09/09 04:32:54;;;;;;;;;;;;;;;19.41;64.00;100072.50;5059738;28;19950;-67
2022/09/09 04:35:19;;;;;;;;;;;;;;;19.44;64.06;100072.09;5062104;28;20190;-67
2022/09/09 04:37:45;;;;;;;;;;;;;;;19.49;63.99;100080.34;5062098;28;19915;-67
2022/09/09 04:40:10;;;;;;;;;;;;;;;19.61;64.10;100078.66;5079478;28;20070;-67
2022/09/09 04:42:36;;;;;;;;;;;;;;;19.58;64.13;100072.91;5102358;28;19915;-67
2022/09/09 04:45:02;;;;;;;;;;;;;;;19.46;64.95;100076.22;5102322;28;19919;-67
2022/09/09 04:47:27;;;;;;;;;;;;;;;19.47;65.78;100077.03;5105188;28;19912;-67
2022/09/09 04:49:54;;;;;;;;;;;;;;;19.55;65.71;100087.56;5106740;28;19920;-67
2022/09/09 04:52:19;;;;;;;;;;;;;;;19.65;64.75;100087.94;5106693;28;19934;-67
2022/09/09 04:54:45;;;;;;;;;;;;;;;19.79;64.21;100093.31;5106610;28;19912;-67
2022/09/09 04:57:10;;;;;;;;;;;;;;;19.94;64.09;100096.53;5106494;28;19912;-67
2022/09/09 04:59:36;;;;;;;;;;;;;;;20.04;64.31;100097.72;5106158;28;20021;-67
2022/09/09 05:02:01;;;;;;;;;;;;;;;20.09;64.26;100100.59;5106312;28;19918;-67
2022/09/09 05:04:28;;;;;;;;;;;;;;;20.22;63.96;100105.06;5106238;28;20197;-67
2022/09/09 05:06:53;;;;;;;;;;;;;;;20.33;63.27;100104.38;5106347;28;20177;-67
2022/09/09 05:09:19;;;;;;;;;;;;;;;20.34;63.27;100097.97;5105994;28;19919;-67
2022/09/09 05:11:44;;;;;;;;;;;;;;;20.32;62.73;100097.34;5105832;28;19965;-67
2022/09/09 05:14:11;;;;;;;;;;;;;;;20.32;63.54;100102.72;5105916;28;19908;-67
2022/09/09 05:16:37;;;;;;;;;;;;;;;20.70;61.27;100101.88;5105990;28;19912;-67
2022/09/09 05:19:03;;;;;;;;;;;;;;;21.03;59.58;100094.34;5105853;28;19954;-67
2022/09/09 05:21:29;;;;;;;;;;;;;;;21.16;58.75;100093.41;5105957;28;19912;-67
2022/09/09 05:23:54;;;;;;;;;;;;;;;21.44;58.08;100094.81;5105912;28;19912;-67
2022/09/09 05:26:20;;;;;;;;;;;;;;;21.59;58.14;100090.69;5105424;28;19912;-66
2022/09/09 05:28:46;;;;;;;;;;;;;;;21.53;58.01;100090.75;5100958;28;19957;-67
2022/09/09 05:31:12;;;;;;;;;;;;;;;21.76;57.92;100093.59;5102512;28;19923;-67
2022/09/09 05:33:40;;;;;;;;;;;;;;;21.94;56.38;100088.19;5104521;28;19943;-67
2022/09/09 05:36:10;;;;;;;;;;;;;;;22.22;55.98;100089.50;5103445;28;20008;-67
2022/09/09 05:38:36;;;;;;;;;;;;;;;22.52;54.88;100084.88;5100912;28;19912;-67
2022/09/09 05:41:02;;;;;;;;;;;;;;;22.81;53.03;100085.91;5101882;28;19970;-68
2022/09/09 05:43:28;;;;;;;;;;;;;;;22.92;52.04;100098.63;5104231;28;19915;-68
2022/09/09 05:46:04;;;;;;;;;;;;;;;23.11;51.48;100093.91;5104021;28;19915;-67
2022/09/09 05:48:33;;;;;;;;;;;;;;;23.37;50.78;100094.50;5101508;28;19955;-68
2022/09/09 05:51:02;;;;;;;;;;;;;;;23.59;49.68;100090.13;5101354;28;19945;-67
2022/09/09 05:53:32;;;;;;;;;;;;;;;23.87;49.24;100092.88;5100639;28;19911;-67
2022/09/09 05:56:04;;;;;;;;;;;;;;;24.22;47.63;100100.03;5102775;28;19916;-67
2022/09/09 05:58:33;;;;;;;;;;;;;;;24.55;46.44;100088.47;5103096;28;19911;-68
2022/09/09 06:01:03;;;;;;;;;;;;;;;24.81;46.91;100097.84;5102380;28;19915;-67
2022/09/09 06:03:28;;;;;;;;;;;;;;;24.82;46.49;100104.88;5083147;28;19995;-67
2022/09/09 06:06:01;;;;;;;;;;;;;;;24.75;46.66;100088.81;5100815;28;19916;-67
2022/09/09 06:08:26;;;;;;;;;;;;;;;25.16;45.04;100078.66;5097463;28;19934;-67
2022/09/09 06:10:52;;;;;;;;;;;;;;;25.38;44.04;100071.34;5101254;28;19959;-67
2022/09/09 06:13:17;;;;;;;;;;;;;;;25.48;43.56;100070.66;5082237;28;19956;-68
2022/09/09 06:15:49;;;;;;;;;;;;;;;25.40;44.16;100069.22;5083662;28;19924;-68
2022/09/09 06:18:17;;;;;;;;;;;;;;;25.49;44.04;100071.50;5100695;28;19919;-68
2022/09/09 06:20:43;;;;;;;;;;;;;;;25.61;43.99;100070.28;5100295;28;20239;-67
2022/09/09 06:23:08;;;;;;;;;;;;;;;25.86;43.32;100063.56;5101359;28;19924;-67
2022/09/09 06:25:34;;;;;;;;;;;;;;;25.96;42.88;100059.06;5099825;28;19924;-68
2022/09/09 06:27:59;;;;;;;;;;;;;;;25.94;42.80;100068.53;5100208;28;20201;-68
2022/09/09 06:30:24;;;;;;;;;;;;;;;26.19;42.20;100071.53;5101685;28;19923;-68
2022/09/09 06:32:50;;;;;;;;;;;;;;;26.41;41.67;100055.19;5103085;28;19907;-68
2022/09/09 06:35:16;;;;;;;;;;;;;;;26.39;41.77;100062.78;5101621;28;19923;-68
2022/09/09 06:37:44;;;;;;;;;;;;;;;26.17;42.23;100076.41;5101621;28;20414;-68
2022/09/09 06:40:10;;;;;;;;;;;;;;;26.16;42.31;100076.66;5100009;28;19930;-68
2022/09/09 06:42:35;;;;;;;;;;;;;;;26.25;42.93;100075.94;5083861;28;19912;-68
2022/09/09 06:45:00;;;;;;;;;;;;;;;26.27;42.69;100079.22;5103475;28;19931;-68
2022/09/09 06:47:27;;;;;;;;;;;;;;;26.59;41.97;100076.53;5083267;28;20229;-67
2022/09/09 06:49:52;;;;;;;;;;;;;;;26.71;41.40;100068.22;5099952;28;19994;-67
2022/09/09 06:52:18;;;;;;;;;;;;;;;26.92;41.52;100069.16;5100794;28;19916;-67
2022/09/09 06:54:45;;;;;;;;;;;;;;;27.16;41.01;100075.91;5099740;28;20221;-68
2022/09/09 06:57:10;;;;;;;;;;;;;;;27.31;40.28;100073.28;5100765;28;19916;-68
2022/09/09 06:59:36;;;;;;;;;;;;;;;27.49;39.44;100082.88;5084807;28;19920;-67
2022/09/09 07:02:01;;;;;;;;;;;;;;;27.58;39.27;100084.00;5102082;28;20140;-68
2022/09/09 07:04:26;;;;;;;;;;;;;;;27.57;39.02;100086.97;5099463;28;20034;-68
2022/09/09 07:06:52;;;;;;;;;;;;;;;27.67;38.78;100076.19;5099787;28;19916;-67
2022/09/09 07:09:17;;;;;;;;;;;;;;;27.70;39.53;100077.53;5099880;28;19920;-68
2022/09/09 07:11:47;;;;;;;;;;;;;;;27.56;39.76;100083.44;5098997;28;19999;-68
2022/09/09 07:14:13;;;;;;;;;;;;;;;27.47;39.97;100087.75;5096545;28;19965;-69
2022/09/09 07:16:39;;;;;;;;;;;;;;;27.91;38.79;100076.53;5100326;28;19924;-68
2022/09/09 07:19:04;;;;;;;;;;;;;;;28.14;38.13;100043.38;5099061;28;19919;-68
2022/09/09 07:21:30;;;;;;;;;;;;;;;28.36;37.94;100067.69;5100831;28;19987;-67
2022/09/09 07:23:56;;;;;;;;;;;;;;;28.14;38.02;100075.25;5100137;28;19920;-68
2022/09/09 07:26:22;;;;;;;;;;;;;;;28.47;37.32;100074.75;5102330;28;19912;-68
2022/09/09 07:28:48;;;;;;;;;;;;;;;28.71;37.01;100066.84;5101153;28;19976;-68
2022/09/09 07:31:16;;;;;;;;;;;;;;;28.51;37.01;100072.31;5100263;28;20204;-68
2022/09/09 07:33:42;;;;;;;;;;;;;;;28.67;37.54;100068.50;5099353;28;19979;-68
2022/09/09 07:36:09;;;;;;;;;;;;;;;29.02;37.11;100069.56;5099504;28;20132;-68
2022/09/09 07:38:54;;;;;;;;;;;;;;;29.06;36.37;100076.09;5099423;28;19920;-68
2022/09/09 07:41:27;;;;;;;;;;;;;;;29.13;36.48;100066.59;5099488;28;19947;-68
2022/09/09 07:43:56;;;;;;;;;;;;;;;29.33;35.79;100057.53;5099375;28;19989;-68
2022/09/09 07:46:23;;;;;;;;;;;;;;;29.35;35.20;100062.69;5098930;28;19920;-68
2022/09/09 07:48:53;;;;;;;;;;;;;;;29.13;35.74;100066.59;5097475;28;20216;-68
2022/09/09 07:51:23;;;;;;;;;;;;;;;29.28;35.80;100059.44;5102122;28;19908;-68
2022/09/09 07:53:51;;;;;;;;;;;;;;;29.42;34.93;100057.75;5099953;28;20117;-68
2022/09/09 07:56:17;;;;;;;;;;;;;;;29.67;34.95;100054.13;5100036;28;20022;-68
2022/09/09 07:58:44;;;;;;;;;;;;;;;28.92;36.23;100056.78;5101678;28;20101;-68
2022/09/09 08:01:12;;;;;;;;;;;;;;;28.82;36.55;100054.03;5099228;28;19923;-68
2022/09/09 08:03:37;;;;;;;;;;;;;;;29.12;35.87;100045.00;5099217;28;19951;-68
2022/09/09 08:06:04;;;;;;;;;;;;;;;29.36;35.44;100037.06;5098219;28;19919;-68
2022/09/09 08:08:29;;;;;;;;;;;;;;;29.46;34.70;100037.03;5077661;28;19912;-68
2022/09/09 08:11:01;;;;;;;;;;;;;;;29.44;35.08;100041.97;5098052;28;19995;-68
2022/09/09 08:13:27;;;;;;;;;;;;;;;29.74;33.94;100039.09;5097457;28;20227;-68
2022/09/09 08:15:52;;;;;;;;;;;;;;;29.85;34.33;100042.56;5081311;28;19916;-68
2022/09/09 08:18:17;;;;;;;;;;;;;;;29.90;34.22;100042.53;5080048;28;19920;-68
2022/09/09 08:20:42;;;;;;;;;;;;;;;30.03;33.69;100032.94;5098009;28;19912;-67
2022/09/09 08:23:08;;;;;;;;;;;;;;;29.72;34.53;100033.09;5099025;28;19948;-67
2022/09/09 08:25:34;;;;;;;;;;;;;;;30.12;34.04;100033.97;5097838;28;19916;-67
2022/09/09 08:28:00;;;;;;;;;;;;;;;30.11;34.03;100030.41;5100668;28;19978;-68
2022/09/09 08:30:26;;;;;;;;;;;;;;;29.55;34.99;100022.53;5101287;28;20147;-68
2022/09/09 08:32:51;;;;;;;;;;;;;;;29.38;35.15;100029.41;5098744;28;20143;-68
2022/09/09 08:35:17;;;;;;;;;;;;;;;29.54;34.58;100026.38;5098102;28;19916;-68
2022/09/09 08:37:42;;;;;;;;;;;;;;;29.78;34.32;100015.59;5100223;28;19912;-68
2022/09/09 08:40:26;;;;;;;;;;;;;;;29.70;34.47;100016.19;5100706;28;19916;-68
2022/09/09 08:42:55;;;;;;;;;;;;;;;29.70;34.53;100012.63;5098572;28;19946;-67
2022/09/09 08:45:24;;;;;;;;;;;;;;;29.44;36.12;100007.31;5097598;28;19920;-68
2022/09/09 08:48:05;;;;;;;;;;;;;;;29.45;35.56;100008.94;5094992;28;19938;-68
2022/09/09 08:50:35;;;;;;;;;;;;;;;29.60;35.11;100007.22;5083881;28;20145;-68
2022/09/09 08:53:03;;;;;;;;;;;;;;;29.38;35.54;100010.31;5102261;28;19949;-68
2022/09/09 08:55:39;;;;;;;;;;;;;;;29.40;36.08;100008.13;5102282;28;19991;-68
2022/09/09 08:58:25;;;;;;;;;;;;;;;29.74;35.12;100000.06;5102043;28;19911;-68
2022/09/09 09:01:08;;;;;;;;;;;;;;;29.72;34.45;100002.25;5101616;28;20308;-68
2022/09/09 09:03:37;;;;;;;;;;;;;;;29.89;34.36;99997.22;5099715;28;19915;-68
2022/09/09 09:06:38;;;;;;;;;;;;;;;29.96;34.68;100000.47;5101963;28;19984;-68
2022/09/09 09:09:30;;;;;;;;;;;;;;;29.10;36.18;100000.84;5056996;28;19927;-68
2022/09/09 09:12:01;;;;;;;;;;;;;;;29.34;36.01;99992.88;5102229;28;19953;-68
2022/09/09 09:14:30;;;;;;;;;;;;;;;29.48;36.19;99992.00;5101531;28;20212;-67
2022/09/09 09:17:00;;;;;;;;;;;;;;;29.44;36.25;99981.94;5102389;28;19912;-67
2022/09/09 09:19:28;;;;;;;;;;;;;;;29.42;36.10;99984.09;5101699;28;19912;-68
2022/09/09 09:21:59;;;;;;;;;;;;;;;29.03;36.55;99984.78;5101937;28;19916;-68
2022/09/09 09:24:50;;;;;;;;;;;;;;;28.60;37.74;99980.78;5099868;28;19919;-67
2022/09/09 09:27:21;;;;;;;;;;;;;;;28.45;38.13;99978.06;5102270;28;19923;-67
2022/09/09 09:29:49;;;;;;;;;;;;;;;28.31;38.00;99968.81;5101827;28;20185;-67
2022/09/09 09:32:16;;;;;;;;;;;;;;;28.07;38.68;99961.16;5102103;28;20168;-67
2022/09/09 09:34:42;;;;;;;;;;;;;;;28.20;38.53;99959.81;5105097;28;19947;-67
2022/09/09 09:37:20;;;;;;;;;;;;;;;28.20;38.65;99967.97;5087150;28;19916;-67
2022/09/09 09:39:46;;;;;;;;;;;;;;;28.26;39.02;99956.03;5105395;28;19912;-68
2022/09/09 09:42:15;;;;;;;;;;;;;;;28.38;39.21;99947.56;5105393;28;19912;-68
2022/09/09 09:44:41;;;;;;;;;;;;;;;28.67;38.45;99947.78;5105219;28;19912;-68
2022/09/09 09:47:13;;;;;;;;;;;;;;;28.54;37.71;99941.81;5105499;28;19911;-68
2022/09/09 09:49:39;;;;;;;;;;;;;;;27.72;39.43;99953.75;5086995;28;19919;-67
2022/09/09 09:52:06;;;;;;;;;;;;;;;27.84;39.80;99951.59;5105138;28;19918;-68
2022/09/09 09:54:33;;;;;;;;;;;;;;;27.56;39.80;99950.16;5105214;28;19911;-67
2022/09/09 09:57:11;;;;;;;;;;;;;;;27.41;40.86;99950.13;5105078;28;19919;-68
2022/09/09 09:59:39;;;;;;;;;;;;;;;27.67;41.41;99945.59;5104734;28;19916;-68
2022/09/09 10:02:15;;;;;;;;;;;;;;;27.90;40.03;99938.81;5086893;28;19920;-68
2022/09/09 10:04:41;;;;;;;;;;;;;;;28.24;38.99;99930.97;5098660;28;20225;-68
2022/09/09 10:07:11;;;;;;;;;;;;;;;27.96;40.29;99941.28;5105019;28;19916;-68
2022/09/09 10:09:36;;;;;;;;;;;;;;;27.17;41.94;99930.75;5098666;28;19967;-68
2022/09/09 10:12:03;;;;;;;;;;;;;;;27.45;41.50;99931.38;5104898;28;20245;-68
2022/09/09 10:14:41;;;;;;;;;;;;;;;27.55;41.92;99936.84;5098442;28;19904;-67
2022/09/09 10:17:09;;;;;;;;;;;;;;;27.50;41.11;99929.47;5100918;28;20121;-68
2022/09/09 10:19:35;;;;;;;;;;;;;;;27.51;40.91;99922.97;5105163;28;19975;-68
2022/09/09 10:22:19;;;;;;;;;;;;;;;27.67;41.29;99921.09;5104681;28;19962;-68
2022/09/09 10:24:50;;;;;;;;;;;;;;;27.66;40.79;99908.59;5104931;28;19945;-68
2022/09/09 10:27:16;;;;;;;;;;;;;;;27.57;40.25;99904.75;5104671;28;20643;-67
2022/09/09 10:29:51;;;;;;;;;;;;;;;27.55;40.93;99912.34;5086349;28;19915;-68
2022/09/09 10:32:16;;;;;;;;;;;;;;;27.38;41.05;99911.78;5104641;28;19947;-68
2022/09/09 10:34:52;;;;;;;;;;;;;;;27.38;41.72;99912.59;5104718;28;20217;-69
2022/09/09 10:37:22;;;;;;;;;;;;;;;27.00;42.16;99925.50;5104212;28;20124;-68
2022/09/09 10:39:51;;;;;;;;;;;;;;;27.10;42.17;99913.06;5104398;28;19919;-68
2022/09/09 10:42:16;;;;;;;;;;;;;;;27.28;41.98;99913.38;5104282;28;19941;-69
2022/09/09 10:45:00;;;;;;;;;;;;;;;27.23;41.44;99915.28;5103689;28;19912;-69
2022/09/09 10:47:25;;;;;;;;;;;;;;;27.16;41.02;99917.44;5099326;28;19912;-67
2022/09/09 10:50:11;;;;;;;;;;;;;;;27.44;40.78;99918.88;5104016;28;19919;-67
2022/09/09 10:52:55;;;;;;;;;;;;;;;27.34;41.19;99908.78;5104107;28;19947;-67
2022/09/09 10:55:25;;;;;;;;;;;;;;;27.50;40.42;99907.72;5099663;28;20337;-67
2022/09/09 10:57:54;;;;;;;;;;;;;;;27.68;40.83;99898.25;5096159;28;19912;-67
2022/09/09 11:00:19;;;;;;;;;;;;;;;27.88;41.01;99892.81;5100800;28;19916;-66
2022/09/09 11:02:48;;;;;;;;;;;;;;;27.73;40.78;99887.38;5102767;28;20197;-67
2022/09/09 11:05:14;;;;;;;;;;;;;;;27.70;40.70;99877.03;5098919;28;19916;-66
2022/09/09 11:07:44;;;;;;;;;;;;;;;28.02;39.63;99871.31;5099383;28;20078;-66
2022/09/09 11:10:19;;;;;;;;;;;;;;;28.17;39.60;99874.06;5102308;28;19928;-67
2022/09/09 11:12:47;;;;;;;;;;;;;;;28.17;40.13;99874.06;5100962;28;20106;-67
2022/09/09 11:15:20;;;;;;;;;;;;;;;28.17;40.77;99852.28;5103573;28;19920;-67
2022/09/09 11:17:49;;;;;;;;;;;;;;;28.50;41.04;99869.91;5101346;28;19908;-67
2022/09/09 11:20:15;;;;;;;;;;;;;;;28.59;39.43;99870.16;5098008;28;20059;-67
2022/09/09 11:22:53;;;;;;;;;;;;;;;28.24;39.29;99858.28;5099784;28;19944;-67
2022/09/09 11:25:51;;;;;;;;;;;;;;;28.15;39.86;99854.44;5102185;28;19939;-67
2022/09/09 11:28:20;;;;;;;;;;;;;;;28.35;39.94;99855.53;5053753;28;20116;-67
2022/09/09 11:30:46;;;;;;;;;;;;;;;28.41;39.20;99846.25;5095648;28;19939;-67
2022/09/09 11:33:17;;;;;;;;;;;;;;;27.84;40.88;99845.47;5097353;28;19927;-67
2022/09/09 11:35:57;;;;;;;;;;;;;;;28.02;40.34;99835.94;5098060;28;19951;-67
2022/09/09 11:38:34;;;;;;;;;;;;;;;28.42;39.78;99831.53;5095151;28;19934;-66
2022/09/09 11:41:06;;;;;;;;;;;;;;;28.30;40.47;99831.84;5094603;28;20122;-67
2022/09/09 11:43:58;;;;;;;;;;;;;;;28.20;41.36;99826.41;5098281;28;19912;-67
2022/09/09 11:46:33;;;;;;;;;;;;;;;28.46;40.06;99836.16;5093277;28;20139;-67
2022/09/09 11:49:00;;;;;;;;;;;;;;;28.72;39.40;99831.44;5098126;28;19912;-67
2022/09/09 11:51:25;;;;;;;;;;;;;;;28.71;39.72;99823.53;5097160;28;20277;-68
2022/09/09 11:53:52;;;;;;;;;;;;;;;28.67;39.19;99828.72;5097079;28;19912;-67
2022/09/09 11:56:31;;;;;;;;;;;;;;;28.67;39.45;99827.91;5097049;28;19924;-67
2022/09/09 11:58:56;;;;;;;;;;;;;;;28.58;40.44;99817.59;5096955;28;19920;-67
2022/09/09 12:01:36;;;;;;;;;;;;;;;28.71;40.37;99820.81;5097131;28;20095;-67
2022/09/09 12:04:17;;;;;;;;;;;;;;;28.93;38.90;99811.19;5094638;28;19986;-67
2022/09/09 12:06:50;;;;;;;;;;;;;;;28.95;39.50;99812.81;5094345;28;19922;-67
2022/09/09 12:09:19;;;;;;;;;;;;;;;29.00;38.85;99813.59;5079638;28;19915;-67
2022/09/09 12:11:44;;;;;;;;;;;;;;;29.07;38.64;99802.38;5097171;28;19928;-67
2022/09/09 12:14:19;;;;;;;;;;;;;;;29.09;38.90;99801.00;5100134;28;20194;-68
2022/09/09 12:16:45;;;;;;;;;;;;;;;29.13;38.82;99793.91;5101441;28;19912;-67
2022/09/09 12:19:22;;;;;;;;;;;;;;;29.08;39.23;99791.19;5079641;28;19912;-68
2022/09/09 12:22:17;;;;;;;;;;;;;;;29.20;38.75;99788.13;5098762;28;20123;-67
2022/09/09 12:25:00;;;;;;;;;;;;;;;29.13;38.78;99774.81;5021391;28;19943;-67
2022/09/09 12:27:36;;;;;;;;;;;;;;;29.23;39.33;99777.47;5093947;28;19916;-67
2022/09/09 12:30:14;;;;;;;;;;;;;;;29.48;38.73;99772.94;5094192;28;19957;-67
2022/09/09 12:32:39;;;;;;;;;;;;;;;29.71;37.81;99772.19;5095003;28;20197;-67
2022/09/09 12:35:12;;;;;;;;;;;;;;;29.53;38.01;99773.72;5096263;28;19937;-67
2022/09/09 12:37:41;;;;;;;;;;;;;;;29.18;38.89;99769.34;5096219;28;19916;-67
2022/09/09 12:40:19;;;;;;;;;;;;;;;28.82;39.48;99744.16;5093513;28;19954;-67
2022/09/09 12:42:44;;;;;;;;;;;;;;;28.99;39.42;99768.34;5087759;28;20216;-67
2022/09/09 12:45:24;;;;;;;;;;;;;;;29.15;39.81;99767.19;5096169;28;19931;-67
2022/09/09 12:47:56;;;;;;;;;;;;;;;29.19;39.36;99754.59;5097326;28;19927;-67
2022/09/09 12:50:22;;;;;;;;;;;;;;;29.37;38.41;99752.28;5077647;28;19916;-67
2022/09/09 12:52:51;;;;;;;;;;;;;;;29.26;38.97;99758.91;5096494;28;19975;-67
2022/09/09 12:55:21;;;;;;;;;;;;;;;29.20;38.81;99753.50;5096009;28;19916;-67